createdAt,value
2022-08-20T00:00:17.277Z,0.89
2022-08-20T00:01:17.515Z,0.89
2022-08-20T00:02:14.445Z,0.8
2022-08-20T00:03:17.461Z,0.8
2022-08-20T00:04:15.410Z,0.8
2022-08-20T00:05:14.039Z,0.9
2022-08-20T00:06:17.167Z,1.06
2022-08-20T00:07:10.226Z,1.06
2022-08-20T00:08:15.827Z,1.14
2022-08-20T00:09:18.139Z,1.14
2022-08-20T00:10:07.043Z,1.14
2022-08-20T00:11:21.351Z,1.2
2022-08-20T00:12:14.655Z,1.2
2022-08-20T00:13:16.182Z,1.2
2022-08-20T00:14:13.912Z,1.29
2022-08-20T00:15:17.777Z,1.54
2022-08-20T00:16:13.186Z,1.25
2022-08-20T00:17:18.664Z,0.72
2022-08-20T00:18:15.699Z,0.72
2022-08-20T00:19:16.586Z,1.24
2022-08-20T00:20:21.747Z,0.71
2022-08-20T00:21:20.942Z,0.64
2022-08-20T00:22:05.624Z,1.15
2022-08-20T00:23:21.558Z,0.94
2022-08-20T00:24:13.385Z,0.94
2022-08-20T00:25:15.142Z,0.94
2022-08-20T00:26:26.184Z,1.53
2022-08-20T00:27:07.408Z,0.72
2022-08-20T00:28:18.805Z,0.98
2022-08-20T00:29:19.296Z,1.59
2022-08-20T00:30:21.803Z,1.59
2022-08-20T00:31:17.084Z,0.86
2022-08-20T00:32:14.840Z,0.89
2022-08-20T00:33:16.560Z,0.89
2022-08-20T00:34:14.158Z,1.21
2022-08-20T00:35:22.526Z,1.09
2022-08-20T00:36:14.470Z,0.71
2022-08-20T00:37:20.039Z,1.22
2022-08-20T00:38:13.300Z,1.01
2022-08-20T00:39:27.506Z,0.95
2022-08-20T00:40:07.180Z,0.95
2022-08-20T00:41:21.437Z,1.18
2022-08-20T00:42:17.525Z,0.89
2022-08-20T00:43:14.698Z,0.89
2022-08-20T00:44:20.832Z,0.8
2022-08-20T00:45:15.783Z,0.8
2022-08-20T00:46:15.814Z,0.7
2022-08-20T00:47:15.553Z,1.83
2022-08-20T00:48:13.220Z,1.37
2022-08-20T00:49:13.298Z,1.37
2022-08-20T00:50:19.414Z,0.43
2022-08-20T00:51:18.098Z,1.37
2022-08-20T00:52:11.945Z,1.37
2022-08-20T00:53:13.151Z,1.32
2022-08-20T00:54:16.939Z,1.22
2022-08-20T00:55:14.900Z,1.08
2022-08-20T00:56:13.630Z,1.08
2022-08-20T00:57:15.166Z,1.18
2022-08-20T00:58:05.963Z,1.18
2022-08-20T00:59:10.032Z,1.15
2022-08-20T01:00:14.577Z,1.22
2022-08-20T01:01:13.667Z,1.22
2022-08-20T01:02:13.106Z,0.92
2022-08-20T01:03:15.188Z,1.17
2022-08-20T01:04:08.578Z,1.17
2022-08-20T01:05:21.882Z,1.08
2022-08-20T01:06:13.263Z,1.08
2022-08-20T01:07:12.010Z,1.08
2022-08-20T01:08:14.114Z,1.39
2022-08-20T01:09:58.769Z,1.1
2022-08-20T01:10:06.012Z,0.89
2022-08-20T01:11:19.803Z,0.82
2022-08-20T01:12:15.692Z,0.82
2022-08-20T01:13:17.642Z,0.97
2022-08-20T01:14:21.484Z,0.97
2022-08-20T01:15:14.717Z,1.31
2022-08-20T01:16:14.570Z,1.33
2022-08-20T01:17:18.209Z,1.33
2022-08-20T01:18:22.352Z,0.87
2022-08-20T01:19:31.997Z,0.51
2022-08-20T01:20:08.923Z,0.51
2022-08-20T01:21:18.232Z,0.62
2022-08-20T01:22:12.018Z,1.01
2022-08-20T01:23:15.266Z,0.68
2022-08-20T01:24:16.683Z,1.09
2022-08-20T01:25:16.929Z,1.09
2022-08-20T01:26:12.882Z,0.83
2022-08-20T01:27:14.866Z,0.83
2022-08-20T01:28:13.548Z,0.62
2022-08-20T01:29:22.329Z,0.95
2022-08-20T01:30:12.023Z,0.64
2022-08-20T01:31:17.280Z,0.98
2022-08-20T01:32:15.265Z,0.98
2022-08-20T01:33:15.532Z,0.37
2022-08-20T01:34:14.120Z,0.37
2022-08-20T01:35:17.583Z,0.96
2022-08-20T01:36:14.919Z,0.96
2022-08-20T01:37:13.026Z,1.02
2022-08-20T01:38:15.288Z,1.09
2022-08-20T01:39:18.526Z,0.99
2022-08-20T01:40:05.563Z,0.99
2022-08-20T01:41:16.738Z,0.94
2022-08-20T01:42:14.911Z,1.56
2022-08-20T01:43:19.267Z,0.67
2022-08-20T01:44:20.746Z,0.43
2022-08-20T01:45:12.921Z,0.91
2022-08-20T01:46:13.094Z,0.91
2022-08-20T01:47:18.157Z,0.67
2022-08-20T01:48:15.385Z,1.03
2022-08-20T01:49:23.571Z,1.03
2022-08-20T01:50:12.701Z,0.7
2022-08-20T01:51:16.721Z,0.56
2022-08-20T01:52:16.465Z,0.56
2022-08-20T01:53:14.775Z,1.28
2022-08-20T01:54:15.284Z,0.51
2022-08-20T01:55:13.174Z,0.51
2022-08-20T01:56:19.101Z,0.51
2022-08-20T01:57:12.329Z,0.55
2022-08-20T01:58:15.492Z,0.55
2022-08-20T01:59:15.335Z,0.94
2022-08-20T02:00:22.256Z,0.94
2022-08-20T02:01:13.790Z,0.98
2022-08-20T02:02:15.136Z,0.44
2022-08-20T02:03:12.313Z,0.44
2022-08-20T02:04:17.555Z,0.6
2022-08-20T02:05:13.951Z,0.6
2022-08-20T02:06:15.029Z,0.71
2022-08-20T02:07:14.567Z,0.71
2022-08-20T02:08:20.753Z,0.95
2022-08-20T02:09:18.349Z,0.93
2022-08-20T02:10:11.059Z,0.73
2022-08-20T02:11:23.137Z,0.73
2022-08-20T02:12:14.947Z,0.82
2022-08-20T02:13:18.414Z,0.82
2022-08-20T02:14:15.132Z,0.49
2022-08-20T02:15:13.212Z,0.92
2022-08-20T02:16:13.078Z,0.92
2022-08-20T02:17:16.609Z,0.47
2022-08-20T02:18:12.982Z,0.47
2022-08-20T02:19:14.408Z,0.59
2022-08-20T02:20:13.826Z,1.35
2022-08-20T02:21:15.901Z,1.35
2022-08-20T02:22:13.224Z,1.35
2022-08-20T02:23:16.237Z,0.51
2022-08-20T02:24:13.947Z,0.51
2022-08-20T02:25:11.223Z,0.59
2022-08-20T02:26:17.722Z,0.6
2022-08-20T02:27:15.798Z,0.6
2022-08-20T02:28:18.777Z,0.72
2022-08-20T02:29:14.118Z,0.59
2022-08-20T02:30:30.044Z,0.59
2022-08-20T02:31:11.764Z,0.56
2022-08-20T02:32:35.776Z,0.6
2022-08-20T02:33:11.840Z,0.45
2022-08-20T02:34:24.938Z,0.45
2022-08-20T02:35:12.142Z,0.45
2022-08-20T02:36:18.142Z,1.09
2022-08-20T02:37:14.719Z,1.09
2022-08-20T02:38:14.766Z,0.83
2022-08-20T02:39:16.634Z,0.83
2022-08-20T02:40:06.896Z,0.83
2022-08-20T02:41:17.731Z,0.52
2022-08-20T02:42:16.127Z,0.52
2022-08-20T02:43:16.139Z,0.55
2022-08-20T02:44:14.760Z,0.55
2022-08-20T02:45:21.076Z,0.58
2022-08-20T02:46:14.719Z,0.58
2022-08-20T02:47:13.287Z,1.38
2022-08-20T02:48:11.926Z,0.95
2022-08-20T02:49:13.809Z,0.89
2022-08-20T02:50:16.377Z,0.63
2022-08-20T02:51:17.755Z,0.75
2022-08-20T02:52:15.239Z,0.75
2022-08-20T02:53:13.309Z,0.75
2022-08-20T02:54:16.107Z,0.59
2022-08-20T02:55:29.829Z,0.59
2022-08-20T02:56:15.425Z,0.57
2022-08-20T02:57:13.329Z,0.57
2022-08-20T02:58:16.646Z,0.61
2022-08-20T02:59:21.828Z,0.61
2022-08-20T03:00:15.308Z,0.61
2022-08-20T03:01:18.757Z,0.89
2022-08-20T03:02:14.751Z,0.69
2022-08-20T03:03:16.885Z,0.69
2022-08-20T03:04:12.565Z,0.68
2022-08-20T03:05:23.038Z,1.12
2022-08-20T03:06:14.252Z,1.12
2022-08-20T03:07:18.007Z,1.12
2022-08-20T03:08:18.375Z,0.71
2022-08-20T03:09:14.095Z,0.56
2022-08-20T03:10:05.295Z,0.56
2022-08-20T03:11:17.000Z,0.52
2022-08-20T03:12:16.932Z,0.54
2022-08-20T03:13:14.544Z,0.54
2022-08-20T03:14:13.599Z,0.89
2022-08-20T03:15:19.668Z,0.64
2022-08-20T03:16:14.778Z,0.26
2022-08-20T03:17:14.449Z,0.26
2022-08-20T03:18:15.699Z,0.68
2022-08-20T03:19:20.694Z,1.01
2022-08-20T03:20:17.586Z,0.68
2022-08-20T03:21:16.907Z,0.68
2022-08-20T03:22:16.170Z,0.48
2022-08-20T03:23:15.535Z,0.48
2022-08-20T03:24:17.087Z,0.8
2022-08-20T03:25:15.267Z,0.84
2022-08-20T03:26:18.933Z,0.84
2022-08-20T03:27:16.481Z,0.88
2022-08-20T03:28:14.748Z,0.88
2022-08-20T03:29:16.197Z,0.43
2022-08-20T03:30:14.269Z,0.48
2022-08-20T03:31:16.991Z,0.74
2022-08-20T03:32:14.182Z,0.74
2022-08-20T03:33:14.589Z,0.46
2022-08-20T03:34:15.967Z,0.46
2022-08-20T03:35:16.342Z,1.11
2022-08-20T03:36:29.978Z,1.06
2022-08-20T03:37:11.690Z,1.06
2022-08-20T03:38:15.412Z,0.78
2022-08-20T03:39:17.103Z,0.61
2022-08-20T03:40:04.841Z,0.61
2022-08-20T03:41:18.959Z,1.12
2022-08-20T03:42:17.096Z,0.72
2022-08-20T03:43:06.827Z,0.72
2022-08-20T03:44:15.256Z,0.82
2022-08-20T03:45:20.641Z,0.58
2022-08-20T03:46:25.817Z,0.58
2022-08-20T03:47:17.278Z,0.58
2022-08-20T03:48:15.039Z,1.22
2022-08-20T03:49:35.986Z,1.09
2022-08-20T03:50:06.041Z,1.09
2022-08-20T03:51:22.728Z,1.09
2022-08-20T03:52:13.247Z,0.72
2022-08-20T03:53:16.894Z,0.72
2022-08-20T03:54:13.906Z,0.55
2022-08-20T03:55:14.741Z,0.98
2022-08-20T03:56:15.810Z,0.98
2022-08-20T03:57:12.438Z,0.98
2022-08-20T03:58:14.696Z,1.38
2022-08-20T03:59:14.527Z,1.47
2022-08-20T04:00:18.256Z,1.47
2022-08-20T04:01:47.097Z,0.56
2022-08-20T04:02:11.039Z,0.56
2022-08-20T04:03:15.708Z,0.69
2022-08-20T04:04:14.428Z,0.69
2022-08-20T04:05:14.307Z,2.25
2022-08-20T04:06:13.470Z,2.25
2022-08-20T04:07:16.590Z,2.25
2022-08-20T04:08:18.228Z,0.66
2022-08-20T04:09:20.155Z,0.66
2022-08-20T04:10:04.650Z,1.12
2022-08-20T04:11:12.805Z,1.37
2022-08-20T04:12:12.812Z,1.19
2022-08-20T04:13:25.704Z,1.19
2022-08-20T04:14:20.727Z,1.19
2022-08-20T04:17:16.579Z,0.47
2022-08-20T04:18:13.648Z,0.58
2022-08-20T04:19:18.797Z,0.58
2022-08-20T04:27:24.247Z,0.9
2022-08-20T04:28:14.547Z,1.11
2022-08-20T04:29:15.866Z,0.46
2022-08-20T04:30:20.653Z,0.46
2022-08-20T04:31:12.263Z,0.52
2022-08-20T04:32:21.049Z,0.83
2022-08-20T04:33:13.009Z,0.53
2022-08-20T04:34:13.782Z,0.53
2022-08-20T04:35:13.044Z,0.85
2022-08-20T04:36:15.826Z,0.52
2022-08-20T04:37:19.297Z,0.52
2022-08-20T04:38:21.361Z,1.08
2022-08-20T04:39:05.186Z,0.99
2022-08-20T04:40:07.588Z,0.99
2022-08-20T04:41:24.603Z,1.32
2022-08-20T04:42:21.868Z,0.67
2022-08-20T04:43:15.198Z,0.67
2022-08-20T04:44:15.975Z,0.76
2022-08-20T04:45:14.155Z,0.88
2022-08-20T04:46:19.152Z,0.88
2022-08-20T04:47:16.406Z,0.72
2022-08-20T04:48:16.825Z,0.72
2022-08-20T04:49:04.896Z,0.71
2022-08-20T04:50:13.945Z,0.69
2022-08-20T04:51:17.095Z,0.42
2022-08-20T04:52:13.212Z,0.42
2022-08-20T04:53:14.309Z,1.03
2022-08-20T04:54:12.614Z,1.03
2022-08-20T04:55:16.611Z,0.84
2022-08-20T04:56:15.499Z,0.84
2022-08-20T04:57:30.761Z,1.11
2022-08-20T04:58:04.622Z,1.11
2022-08-20T04:59:15.958Z,0.69
2022-08-20T05:00:16.620Z,0.75
2022-08-20T05:01:15.871Z,0.75
2022-08-20T05:02:21.144Z,1.35
2022-08-20T05:03:13.102Z,1.35
2022-08-20T05:04:15.405Z,1.09
2022-08-20T05:05:17.622Z,0.48
2022-08-20T05:06:12.558Z,0.95
2022-08-20T05:07:17.961Z,1.05
2022-08-20T05:08:22.073Z,1.05
2022-08-20T05:09:19.973Z,0.69
2022-08-20T05:10:05.013Z,0.69
2022-08-20T05:11:36.827Z,1.21
2022-08-20T05:12:14.630Z,1.21
2022-08-20T05:13:20.670Z,1.46
2022-08-20T05:14:17.023Z,1.46
2022-08-20T05:15:06.271Z,0.79
2022-08-20T05:16:20.643Z,0.79
2022-08-20T05:17:15.872Z,1.6
2022-08-20T05:18:14.839Z,1.6
2022-08-20T05:19:15.924Z,2.93
2022-08-20T05:20:16.789Z,2.93
2022-08-20T05:21:17.775Z,4.69
2022-08-20T05:22:19.457Z,6.42
2022-08-20T05:23:15.439Z,7.05
2022-08-20T05:24:16.914Z,7.05
2022-08-20T05:25:15.994Z,4.9
2022-08-20T05:26:15.342Z,4.33
2022-08-20T05:27:26.894Z,4.33
2022-08-20T05:28:13.082Z,2.31
2022-08-20T05:29:13.606Z,2.31
2022-08-20T05:30:15.859Z,1.45
2022-08-20T05:31:16.979Z,1.4
2022-08-20T05:32:14.036Z,1.4
2022-08-20T05:33:15.912Z,1.44
2022-08-20T05:34:18.057Z,0.95
2022-08-20T05:35:14.731Z,0.81
2022-08-20T05:36:19.671Z,0.81
2022-08-20T05:37:17.838Z,1.04
2022-08-20T05:38:14.493Z,0.84
2022-08-20T05:39:18.643Z,1.11
2022-08-20T05:40:06.343Z,1.11
2022-08-20T05:41:31.664Z,1.6
2022-08-20T05:42:13.830Z,1.71
2022-08-20T05:43:16.530Z,1.51
2022-08-20T05:44:20.899Z,1.25
2022-08-20T05:45:15.260Z,1.08
2022-08-20T05:46:16.860Z,1.08
2022-08-20T05:47:14.743Z,1.28
2022-08-20T05:48:14.619Z,1.28
2022-08-20T05:49:15.291Z,1.49
2022-08-20T05:50:23.350Z,0.54
2022-08-20T05:51:17.434Z,0.54
2022-08-20T05:52:18.127Z,1.05
2022-08-20T05:53:16.250Z,0.91
2022-08-20T05:54:16.145Z,1.1
2022-08-20T05:55:14.056Z,1.1
2022-08-20T05:56:16.350Z,0.66
2022-08-20T05:57:11.715Z,0.66
2022-08-20T05:58:18.288Z,1.1
2022-08-20T05:59:25.968Z,0.99
2022-08-20T06:00:12.627Z,0.99
2022-08-20T06:01:13.700Z,0.58
2022-08-20T06:02:10.500Z,0.83
2022-08-20T06:03:12.619Z,0.83
2022-08-20T06:04:15.568Z,1.32
2022-08-20T06:05:12.471Z,0.56
2022-08-20T06:06:45.445Z,0.62
2022-08-20T06:07:12.467Z,1.43
2022-08-20T06:08:16.781Z,1.43
2022-08-20T06:09:16.504Z,1.25
2022-08-20T06:10:05.348Z,1.25
2022-08-20T06:11:20.206Z,1.16
2022-08-20T06:12:14.773Z,1.19
2022-08-20T06:13:16.288Z,1.19
2022-08-20T06:14:14.960Z,1.09
2022-08-20T06:15:15.378Z,0.98
2022-08-20T06:16:19.281Z,1.04
2022-08-20T06:17:17.487Z,1.44
2022-08-20T06:18:30.881Z,1.44
2022-08-20T06:19:13.306Z,1.44
2022-08-20T06:20:16.303Z,1.16
2022-08-20T06:21:17.709Z,1.16
2022-08-20T06:22:27.523Z,1.19
2022-08-20T06:23:17.799Z,1.19
2022-08-20T06:24:26.334Z,0.71
2022-08-20T06:25:14.217Z,0.93
2022-08-20T06:26:15.336Z,0.86
2022-08-20T06:27:14.655Z,0.86
2022-08-20T06:28:16.446Z,0.86
2022-08-20T06:29:12.446Z,1.1
2022-08-20T06:30:11.278Z,1.1
2022-08-20T06:31:12.767Z,1.28
2022-08-20T06:32:14.748Z,1.28
2022-08-20T06:33:13.824Z,1.83
2022-08-20T06:34:17.243Z,1.52
2022-08-20T06:35:22.087Z,0.76
2022-08-20T06:36:12.220Z,0.76
2022-08-20T06:37:16.311Z,1.25
2022-08-20T06:38:13.762Z,1.25
2022-08-20T06:39:16.456Z,1.25
2022-08-20T06:40:16.919Z,1.47
2022-08-20T06:41:13.866Z,1.64
2022-08-20T06:42:22.709Z,1.45
2022-08-20T06:43:14.130Z,1.55
2022-08-20T06:44:15.626Z,1.25
2022-08-20T06:45:13.414Z,1.25
2022-08-20T06:46:21.414Z,1.06
2022-08-20T06:47:14.815Z,0.99
2022-08-20T06:48:17.598Z,1.33
2022-08-20T06:49:17.707Z,1.16
2022-08-20T06:50:20.213Z,0.92
2022-08-20T06:51:15.087Z,0.92
2022-08-20T06:52:14.945Z,1.24
2022-08-20T06:53:16.097Z,1.09
2022-08-20T06:54:16.870Z,1.32
2022-08-20T06:55:16.762Z,1.32
2022-08-20T06:56:15.090Z,1.46
2022-08-20T06:57:17.722Z,1.34
2022-08-20T06:58:38.867Z,1.34
2022-08-20T06:59:15.555Z,2.6
2022-08-20T07:00:17.123Z,1.84
2022-08-20T07:01:18.852Z,1.84
2022-08-20T07:02:14.047Z,1.91
2022-08-20T07:03:13.158Z,1.91
2022-08-20T07:04:14.337Z,1.87
2022-08-20T07:05:15.751Z,1.95
2022-08-20T07:06:12.108Z,1.95
2022-08-20T07:07:14.048Z,2.17
2022-08-20T07:08:16.974Z,2.11
2022-08-20T07:09:19.888Z,1.71
2022-08-20T07:10:05.751Z,1.71
2022-08-20T07:11:14.710Z,1.1
2022-08-20T07:12:14.489Z,0.98
2022-08-20T07:13:15.691Z,0.98
2022-08-20T07:14:15.553Z,1.42
2022-08-20T07:15:15.633Z,1.42
2022-08-20T07:16:14.525Z,1.89
2022-08-20T07:17:15.282Z,1.65
2022-08-20T07:18:10.223Z,0.81
2022-08-20T07:19:14.660Z,0.81
2022-08-20T07:20:15.737Z,2.06
2022-08-20T07:21:15.286Z,1.92
2022-08-20T07:22:14.557Z,1.92
2022-08-20T07:23:13.331Z,1.92
2022-08-20T07:24:17.215Z,2.08
2022-08-20T07:25:17.951Z,2.14
2022-08-20T07:26:14.704Z,2.14
2022-08-20T07:27:18.672Z,1.75
2022-08-20T07:28:14.738Z,1.75
2022-08-20T07:29:15.484Z,2.04
2022-08-20T07:30:17.085Z,2.04
2022-08-20T07:31:20.367Z,2.62
2022-08-20T07:32:17.215Z,2.62
2022-08-20T07:33:11.879Z,2.17
2022-08-20T07:34:16.770Z,1.68
2022-08-20T07:35:23.356Z,1.68
2022-08-20T07:36:17.013Z,1.68
2022-08-20T07:37:12.701Z,3.61
2022-08-20T07:38:13.701Z,3.61
2022-08-20T07:39:22.493Z,2.04
2022-08-20T07:40:08.261Z,3.55
2022-08-20T07:41:18.359Z,1.74
2022-08-20T07:42:14.771Z,3.53
2022-08-20T07:43:17.534Z,3.53
2022-08-20T07:44:17.481Z,3.27
2022-08-20T07:45:23.415Z,2.85
2022-08-20T07:46:18.044Z,2.85
2022-08-20T07:47:17.624Z,2.85
2022-08-20T07:48:32.426Z,2.57
2022-08-20T07:49:15.589Z,2.26
2022-08-20T07:50:14.159Z,2.51
2022-08-20T07:51:19.559Z,2.51
2022-08-20T07:52:14.615Z,2.51
2022-08-20T07:53:14.287Z,1.98
2022-08-20T07:54:13.115Z,1.98
2022-08-20T07:55:15.592Z,1.87
2022-08-20T07:56:14.932Z,2.7
2022-08-20T07:57:14.313Z,2.7
2022-08-20T07:58:20.468Z,2.59
2022-08-20T07:59:10.214Z,2.89
2022-08-20T08:00:15.590Z,2.28
2022-08-20T08:01:18.501Z,2.19
2022-08-20T08:02:14.260Z,1.96
2022-08-20T08:03:13.786Z,1.96
2022-08-20T08:04:10.798Z,1.47
2022-08-20T08:05:13.355Z,1.47
2022-08-20T08:06:16.996Z,2.29
2022-08-20T08:07:14.601Z,1.44
2022-08-20T08:08:12.829Z,2.09
2022-08-20T08:09:22.771Z,2.33
2022-08-20T08:10:05.690Z,2.33
2022-08-20T08:11:18.052Z,2.66
2022-08-20T08:12:20.009Z,2.31
2022-08-20T08:13:11.717Z,1.82
2022-08-20T08:14:13.522Z,1.82
2022-08-20T08:15:12.755Z,2.27
2022-08-20T08:16:15.906Z,2.27
2022-08-20T08:17:16.310Z,2.51
2022-08-20T08:18:16.906Z,1.66
2022-08-20T08:19:13.095Z,2.29
2022-08-20T08:20:20.967Z,2.29
2022-08-20T08:21:15.396Z,1.24
2022-08-20T08:22:18.069Z,1.24
2022-08-20T08:23:31.901Z,1.24
2022-08-20T08:24:20.473Z,1.93
2022-08-20T08:25:12.346Z,2.52
2022-08-20T08:26:21.321Z,2.2
2022-08-20T08:27:17.220Z,2.2
2022-08-20T08:28:14.050Z,1.85
2022-08-20T08:29:12.588Z,1.68
2022-08-20T08:30:14.711Z,1.47
2022-08-20T08:31:21.165Z,1.75
2022-08-20T08:32:21.485Z,1.51
2022-08-20T08:33:12.728Z,2.05
2022-08-20T08:34:14.603Z,2.05
2022-08-20T08:35:16.697Z,1.95
2022-08-20T08:36:13.376Z,1.22
2022-08-20T08:37:18.733Z,1.4
2022-08-20T08:38:16.524Z,1.4
2022-08-20T08:39:15.773Z,1.8
2022-08-20T08:40:04.836Z,1.8
2022-08-20T08:41:14.608Z,1.69
2022-08-20T08:42:16.351Z,1.9
2022-08-20T08:43:14.601Z,2.86
2022-08-20T08:44:17.971Z,2.86
2022-08-20T08:45:16.783Z,2.3
2022-08-20T08:46:40.770Z,2.3
2022-08-20T08:47:15.608Z,1.91
2022-08-20T08:48:20.507Z,1.29
2022-08-20T08:49:15.534Z,1.29
2022-08-20T08:50:19.512Z,2.02
2022-08-20T08:51:11.359Z,2.02
2022-08-20T08:52:16.648Z,2.17
2022-08-20T08:53:12.929Z,2.17
2022-08-20T08:54:18.755Z,3.51
2022-08-20T08:55:15.260Z,1.41
2022-08-20T08:56:17.312Z,1.74
2022-08-20T08:57:15.550Z,1.74
2022-08-20T08:58:19.272Z,2.07
2022-08-20T08:59:12.840Z,2.07
2022-08-20T09:00:17.008Z,2.35
2022-08-20T09:01:57.713Z,1.64
2022-08-20T09:02:13.096Z,1.64
2022-08-20T09:03:17.112Z,2.29
2022-08-20T09:04:11.076Z,2.29
2022-08-20T09:05:15.789Z,1.71
2022-08-20T09:06:13.144Z,2.32
2022-08-20T09:07:15.369Z,2.32
2022-08-20T09:08:19.370Z,1.61
2022-08-20T09:09:16.930Z,2.18
2022-08-20T09:10:12.119Z,2.24
2022-08-20T09:11:18.278Z,2.24
2022-08-20T09:12:18.941Z,1.18
2022-08-20T09:13:14.082Z,1.18
2022-08-20T09:14:15.886Z,1.18
2022-08-20T09:15:16.981Z,2.01
2022-08-20T09:16:15.119Z,1.85
2022-08-20T09:17:13.573Z,1.85
2022-08-20T09:18:15.645Z,1.74
2022-08-20T09:19:20.725Z,1.83
2022-08-20T09:20:14.162Z,2.05
2022-08-20T09:21:15.489Z,2.05
2022-08-20T09:22:16.436Z,2.55
2022-08-20T09:23:12.148Z,2.55
2022-08-20T09:24:18.733Z,2.16
2022-08-20T09:25:15.606Z,1.55
2022-08-20T09:26:14.855Z,1.55
2022-08-20T09:27:13.467Z,1.66
2022-08-20T09:28:16.160Z,2.85
2022-08-20T09:29:10.723Z,2.85
2022-08-20T09:30:13.402Z,1.95
2022-08-20T09:31:20.419Z,2.44
2022-08-20T09:32:12.388Z,2.44
2022-08-20T09:33:14.805Z,2.21
2022-08-20T09:34:17.405Z,2.11
2022-08-20T09:35:15.475Z,2.11
2022-08-20T09:36:34.158Z,2.72
2022-08-20T09:37:16.011Z,2.53
2022-08-20T09:38:12.808Z,2.29
2022-08-20T09:39:18.200Z,1.94
2022-08-20T09:40:09.002Z,1.94
2022-08-20T09:41:13.306Z,2.11
2022-08-20T09:42:14.847Z,2.11
2022-08-20T09:43:18.926Z,2.22
2022-08-20T09:44:16.669Z,2.22
2022-08-20T09:45:16.229Z,2.22
2022-08-20T09:46:20.462Z,1.73
2022-08-20T09:47:13.694Z,1.73
2022-08-20T09:48:13.126Z,2.84
2022-08-20T09:49:15.727Z,2.61
2022-08-20T09:50:14.457Z,1.61
2022-08-20T09:51:17.883Z,1.64
2022-08-20T09:52:14.684Z,1.64
2022-08-20T09:53:16.025Z,2.85
2022-08-20T09:54:14.993Z,2.85
2022-08-20T09:55:17.890Z,2.02
2022-08-20T09:56:11.382Z,1.42
2022-08-20T09:57:15.192Z,1.42
2022-08-20T09:58:18.433Z,1.44
2022-08-20T09:59:12.217Z,2.1
2022-08-20T10:00:15.617Z,2.1
2022-08-20T10:01:16.451Z,1.39
2022-08-20T10:02:15.822Z,2.22
2022-08-20T10:03:05.623Z,2.22
2022-08-20T10:04:12.332Z,2.22
2022-08-20T10:05:14.303Z,2.18
2022-08-20T10:06:16.841Z,2.12
2022-08-20T10:07:18.213Z,1.75
2022-08-20T10:08:14.537Z,1.75
2022-08-20T10:09:18.324Z,2.01
2022-08-20T10:10:05.156Z,2.01
2022-08-20T10:11:14.826Z,2
2022-08-20T10:12:15.181Z,1.57
2022-08-20T10:13:20.057Z,1.57
2022-08-20T10:14:14.700Z,2.04
2022-08-20T10:15:17.873Z,2.04
2022-08-20T10:16:13.801Z,2.82
2022-08-20T10:17:17.237Z,2.82
2022-08-20T10:18:12.217Z,2.82
2022-08-20T10:19:15.242Z,2.3
2022-08-20T10:20:14.788Z,2.19
2022-08-20T10:21:18.224Z,1.68
2022-08-20T10:22:05.022Z,1.68
2022-08-20T10:23:16.073Z,1.78
2022-08-20T10:24:14.858Z,2.1
2022-08-20T10:25:17.077Z,1.38
2022-08-20T10:26:15.687Z,1.38
2022-08-20T10:27:12.154Z,1.38
2022-08-20T10:28:18.537Z,1.76
2022-08-20T10:29:15.025Z,1.76
2022-08-20T10:30:14.544Z,2.08
2022-08-20T10:31:10.196Z,2.08
2022-08-20T10:32:19.139Z,2.64
2022-08-20T10:33:17.793Z,2.48
2022-08-20T10:34:16.818Z,1.37
2022-08-20T10:35:05.599Z,1.37
2022-08-20T10:36:16.564Z,1.37
2022-08-20T10:37:15.489Z,1.38
2022-08-20T10:38:17.325Z,1.27
2022-08-20T10:39:18.935Z,1.51
2022-08-20T10:40:07.665Z,1.51
2022-08-20T10:41:19.206Z,1.96
2022-08-20T10:42:10.677Z,1.79
2022-08-20T10:43:13.437Z,1.83
2022-08-20T10:44:22.796Z,2.15
2022-08-20T10:45:16.273Z,1.34
2022-08-20T10:46:17.139Z,1.83
2022-08-20T10:47:16.335Z,1.83
2022-08-20T10:48:23.614Z,1.42
2022-08-20T10:49:13.225Z,1.42
2022-08-20T10:50:15.020Z,1.01
2022-08-20T10:51:16.147Z,0.86
2022-08-20T10:52:08.162Z,0.86
2022-08-20T10:53:14.072Z,1.36
2022-08-20T10:54:14.920Z,1.88
2022-08-20T10:55:18.794Z,1.39
2022-08-20T10:56:17.554Z,1.39
2022-08-20T10:57:22.232Z,1.94
2022-08-20T10:58:25.969Z,1.93
2022-08-20T10:59:14.540Z,1.93
2022-08-20T11:00:18.776Z,1.58
2022-08-20T11:01:36.301Z,1.58
2022-08-20T11:02:16.443Z,1.25
2022-08-20T11:03:15.033Z,1.25
2022-08-20T11:04:13.431Z,1.25
2022-08-20T11:05:19.386Z,1.3
2022-08-20T11:06:05.769Z,1.3
2022-08-20T11:07:12.775Z,1.68
2022-08-20T11:08:25.118Z,1.68
2022-08-20T11:09:18.220Z,1.24
2022-08-20T11:10:16.193Z,1.68
2022-08-20T11:11:16.405Z,1.68
2022-08-20T11:12:18.000Z,1.11
2022-08-20T11:13:18.181Z,1.11
2022-08-20T11:14:15.270Z,1.12
2022-08-20T11:15:18.815Z,1.21
2022-08-20T11:16:17.461Z,1.21
2022-08-20T11:17:13.509Z,0.82
2022-08-20T11:18:14.680Z,1.95
2022-08-20T11:19:13.427Z,1.71
2022-08-20T11:20:13.877Z,1.71
2022-08-20T11:21:14.144Z,1.47
2022-08-20T11:22:11.808Z,1.47
2022-08-20T11:23:23.288Z,1.69
2022-08-20T11:24:20.494Z,1.69
2022-08-20T11:25:15.717Z,1.46
2022-08-20T11:26:14.876Z,0.89
2022-08-20T11:27:13.590Z,0.89
2022-08-20T11:28:16.463Z,1.58
2022-08-20T11:29:14.486Z,2
2022-08-20T11:30:13.222Z,1.79
2022-08-20T11:31:12.467Z,1.79
2022-08-20T11:32:14.652Z,1.79
2022-08-20T11:33:12.118Z,0.79
2022-08-20T11:34:18.036Z,0.79
2022-08-20T11:35:43.270Z,1.48
2022-08-20T11:36:11.183Z,1.48
2022-08-20T11:37:14.336Z,1.64
2022-08-20T11:38:14.444Z,1.85
2022-08-20T11:39:20.203Z,1.85
2022-08-20T11:40:06.222Z,1.85
2022-08-20T11:41:22.040Z,1.27
2022-08-20T11:42:14.100Z,1.18
2022-08-20T11:43:20.640Z,1.08
2022-08-20T11:44:22.798Z,1.08
2022-08-20T11:45:11.928Z,1.08
2022-08-20T11:46:14.555Z,1.48
2022-08-20T11:47:20.350Z,1.09
2022-08-20T11:48:20.876Z,1.09
2022-08-20T11:49:16.284Z,1.04
2022-08-20T11:50:15.481Z,1.04
2022-08-20T11:51:14.372Z,1.48
2022-08-20T11:52:17.516Z,1.48
2022-08-20T11:53:17.164Z,1.72
2022-08-20T11:54:38.532Z,1.58
2022-08-20T11:55:18.528Z,1.58
2022-08-20T11:56:15.434Z,1.58
2022-08-20T11:57:13.960Z,1.35
2022-08-20T11:58:13.356Z,2.2
2022-08-20T11:59:15.276Z,1.19
2022-08-20T12:00:15.144Z,1.19
2022-08-20T12:01:17.058Z,1.19
2022-08-20T12:02:15.641Z,1.48
2022-08-20T12:03:12.508Z,1.48
2022-08-20T12:04:14.566Z,2.01
2022-08-20T12:05:14.419Z,0.89
2022-08-20T12:06:14.602Z,1.53
2022-08-20T12:07:12.262Z,1
2022-08-20T12:08:09.502Z,1.37
2022-08-20T12:09:18.399Z,1.26
2022-08-20T12:10:15.612Z,1.63
2022-08-20T12:11:15.677Z,1.63
2022-08-20T12:12:16.084Z,1.63
2022-08-20T12:13:14.888Z,1.46
2022-08-20T12:14:14.535Z,1.51
2022-08-20T12:15:15.074Z,1.03
2022-08-20T12:16:15.923Z,1.03
2022-08-20T12:17:12.933Z,1.12
2022-08-20T12:18:14.743Z,1.12
2022-08-20T12:19:16.525Z,0.85
2022-08-20T12:20:16.164Z,1.32
2022-08-20T12:21:15.914Z,1.32
2022-08-20T12:22:26.833Z,1.35
2022-08-20T12:23:11.226Z,1.65
2022-08-20T12:24:14.045Z,1.65
2022-08-20T12:25:18.508Z,2.06
2022-08-20T12:26:13.558Z,2.06
2022-08-20T12:27:13.018Z,2.06
2022-08-20T12:28:12.994Z,1.78
2022-08-20T12:29:14.070Z,1.78
2022-08-20T12:30:15.593Z,1.31
2022-08-20T12:31:10.731Z,1.11
2022-08-20T12:32:12.948Z,1.1
2022-08-20T12:33:14.837Z,1.13
2022-08-20T12:34:18.636Z,1.13
2022-08-20T12:35:16.953Z,0.94
2022-08-20T12:36:15.556Z,0.95
2022-08-20T12:37:23.824Z,1.25
2022-08-20T12:38:13.521Z,1.25
2022-08-20T12:39:22.228Z,1.4
2022-08-20T12:40:07.155Z,2.01
2022-08-20T12:41:19.583Z,2.01
2022-08-20T12:42:11.869Z,0.98
2022-08-20T12:43:12.317Z,0.98
2022-08-20T12:44:15.561Z,1.43
2022-08-20T12:45:17.402Z,0.68
2022-08-20T12:46:16.444Z,0.68
2022-08-20T12:47:17.450Z,0.68
2022-08-20T12:48:14.859Z,1.05
2022-08-20T12:49:20.614Z,0.43
2022-08-20T12:50:14.765Z,0.43
2022-08-20T12:51:14.589Z,1.52
2022-08-20T12:52:11.532Z,1.52
2022-08-20T12:53:13.601Z,1.52
2022-08-20T12:54:12.478Z,1.44
2022-08-20T12:55:13.974Z,1.44
2022-08-20T12:56:12.928Z,1.14
2022-08-20T12:57:11.939Z,1.14
2022-08-20T12:58:17.673Z,1.23
2022-08-20T12:59:12.271Z,1.23
2022-08-20T13:00:14.661Z,0.83
2022-08-20T13:01:16.034Z,0.83
2022-08-20T13:02:20.924Z,1.44
2022-08-20T13:03:18.943Z,2.21
2022-08-20T13:04:16.312Z,2.21
2022-08-20T13:05:16.949Z,1.31
2022-08-20T13:06:17.305Z,1.42
2022-08-20T13:07:14.963Z,2.44
2022-08-20T13:08:18.977Z,0.89
2022-08-20T13:09:16.870Z,1.48
2022-08-20T13:10:13.015Z,1.48
2022-08-20T13:11:16.456Z,1.03
2022-08-20T13:12:20.561Z,1.03
2022-08-20T13:13:17.444Z,1.49
2022-08-20T13:14:12.427Z,1.49
2022-08-20T13:15:13.830Z,1.44
2022-08-20T13:16:13.285Z,1.44
2022-08-20T13:17:18.083Z,1.39
2022-08-20T13:18:12.264Z,1.78
2022-08-20T13:19:12.357Z,1.23
2022-08-20T13:20:17.754Z,1.07
2022-08-20T13:21:14.302Z,1.07
2022-08-20T13:22:19.272Z,1.14
2022-08-20T13:23:16.971Z,1.78
2022-08-20T13:25:15.189Z,1.12
2022-08-20T13:25:18.779Z,1.11
2022-08-20T13:26:13.861Z,1.66
2022-08-20T13:27:15.117Z,1.66
2022-08-20T13:28:15.039Z,1.82
2022-08-20T13:29:13.501Z,1.82